Página principal
METAR-TAF:

METAR-TAF

Aeroportos :

Kunming, China

latitude: 25-01N, longitude: 102-41E, altura: 1892 m

Observação actual do tempo

O boletim foi feito há 32 minutos, às 09:00 UTC
Vento 12 kt de nor-nordeste
Temperatura 17°C
Humidade 68%
Pressão 1021 hPa
Visibilidade 10 km ou mais
Nuvens dispersasa uma altura de 2000 ft
Nuvens fragmentadasa uma altura de 4300 ft

METAR: ZPPP 270900Z 03006MPS 9999 SCT020 BKN043 17/11 Q1021 NOSIG

Hora: 17:32 (09:32 UTC)

Previsão

O boletim foi feito há 8 horas e 21 minutos, às 01:11 UTC
Previsão válida de 27 às 06 UTC a 28 às 06 UTC
Vento 12 kt de nordeste
Visibilidade 10 km ou mais
Nuvens dispersasa uma altura de 2000 ft
Nuvens fragmentadasa uma altura de 3300 ft

TAF: ZPPP 270111Z 2706/2806 04006MPS 9999 SCT020 BKN033 TX19/2708Z TN12/2723Z

Observações e previsões do tempo de mais de 4000 aeroportos (mensagens METAR e TAF).

As estações disponíveis são os pontos amarelos e vermelhos sobre o mapa.

Mova o rato sobre o mapa para ver o nome da estação.

Depois clique no ponto para visualizar as observações e previsões meteorológicas.

Para alterar o mapa : clique nos botões verdes com uma cruz preta para aumentar o zoom; no botão verde com uma pitada de zoom; ou nas setas verdes para mapas adjacentes.


METAR-TAF: